createdAt,value
2023-03-22T00:01:28.242Z,63.70
2023-03-22T00:03:55.171Z,62.80
2023-03-22T00:06:22.368Z,62.90
2023-03-22T00:08:53.909Z,63.30
2023-03-22T00:11:24.376Z,62.50
2023-03-22T00:13:52.762Z,62.60
2023-03-22T00:16:21.314Z,64.70
2023-03-22T00:18:48.290Z,65.30
2023-03-22T00:21:17.263Z,64.60
2023-03-22T00:23:45.255Z,65.30
2023-03-22T00:26:14.332Z,65.00
2023-03-22T00:28:42.482Z,61.20
2023-03-22T00:31:11.010Z,61.20
2023-03-22T00:33:40.852Z,64.70
2023-03-22T00:38:44.042Z,60.40
2023-03-22T00:41:19.852Z,61.10
2023-03-22T00:43:48.186Z,57.00
2023-03-22T00:46:17.470Z,53.30
2023-03-22T00:48:44.464Z,50.90
2023-03-22T00:51:12.102Z,53.20
2023-03-22T00:53:41.992Z,53.00
2023-03-22T00:56:14.171Z,53.00
2023-03-22T00:59:01.557Z,52.10
2023-03-22T01:01:29.220Z,50.80
2023-03-22T01:03:56.124Z,53.70
2023-03-22T01:06:23.218Z,57.70
2023-03-22T01:08:51.127Z,56.60
2023-03-22T01:11:18.441Z,59.30
2023-03-22T01:13:45.765Z,59.50
2023-03-22T01:16:12.727Z,58.60
2023-03-22T01:18:40.899Z,62.00
2023-03-22T01:21:09.094Z,59.50
2023-03-22T01:23:36.458Z,63.90
2023-03-22T01:26:04.406Z,63.60
2023-03-22T01:28:31.534Z,67.40
2023-03-22T01:31:02.685Z,68.00
2023-03-22T01:33:31.232Z,71.10
2023-03-22T01:35:58.254Z,64.30
2023-03-22T01:38:25.442Z,67.00
2023-03-22T01:40:58.136Z,63.70
2023-03-22T01:43:25.634Z,61.80
2023-03-22T01:45:54.225Z,61.30
2023-03-22T01:48:34.390Z,64.40
2023-03-22T01:51:07.995Z,63.40
2023-03-22T01:54:05.942Z,58.70
2023-03-22T01:56:36.610Z,61.40
2023-03-22T01:59:07.904Z,61.30
2023-03-22T02:01:49.716Z,60.50
2023-03-22T02:04:20.349Z,61.90
2023-03-22T02:06:48.504Z,58.40
2023-03-22T02:11:57.739Z,55.10
2023-03-22T02:14:53.612Z,57.30
2023-03-22T02:17:46.590Z,56.40
2023-03-22T02:20:38.866Z,58.50
2023-03-22T02:23:30.964Z,58.60
2023-03-22T02:26:05.547Z,58.50
2023-03-22T02:28:45.823Z,57.50
2023-03-22T02:31:17.933Z,57.20
2023-03-22T02:34:15.753Z,55.80
2023-03-22T02:36:46.127Z,57.70
2023-03-22T02:39:22.551Z,57.40
2023-03-22T02:41:56.251Z,58.30
2023-03-22T02:44:27.156Z,57.70
2023-03-22T02:47:04.284Z,55.40
2023-03-22T02:49:41.376Z,57.30
2023-03-22T02:52:17.705Z,56.40
2023-03-22T02:55:00.238Z,55.90
2023-03-22T02:57:48.593Z,52.30
2023-03-22T03:00:18.928Z,53.80
2023-03-22T03:05:18.340Z,55.40
2023-03-22T03:07:52.468Z,56.00
2023-03-22T03:10:21.394Z,53.30
2023-03-22T03:12:48.431Z,53.10
2023-03-22T03:15:18.802Z,52.20
2023-03-22T03:18:01.497Z,54.70
2023-03-22T03:20:49.641Z,52.20
2023-03-22T03:23:28.797Z,53.30
2023-03-22T03:26:09.583Z,50.60
2023-03-22T03:28:51.154Z,50.80
2023-03-22T03:31:30.243Z,50.50
2023-03-22T03:34:00.518Z,49.50
2023-03-22T03:36:29.658Z,48.10
2023-03-22T03:38:58.548Z,48.30
2023-03-22T03:41:29.594Z,48.50
2023-03-22T03:43:58.695Z,46.70
2023-03-22T03:46:26.338Z,46.30
2023-03-22T03:48:57.568Z,44.10
2023-03-22T03:51:27.793Z,43.90
2023-03-22T03:55:33.963Z,41.90
2023-03-22T03:58:00.908Z,42.30
2023-03-22T04:00:27.804Z,40.70
2023-03-22T04:03:21.024Z,40.80
2023-03-22T04:06:19.909Z,42.20
2023-03-22T04:08:53.681Z,40.10
2023-03-22T04:11:24.001Z,40.70
2023-03-22T04:13:52.603Z,41.00
2023-03-22T04:16:21.178Z,38.00
2023-03-22T04:18:48.887Z,40.10
2023-03-22T04:21:16.670Z,37.30
2023-03-22T04:23:52.288Z,36.30
2023-03-22T04:26:19.152Z,36.30
2023-03-22T04:28:54.338Z,35.50
2023-03-22T04:31:21.321Z,34.70
2023-03-22T04:33:55.975Z,33.10
2023-03-22T04:36:39.732Z,32.50
2023-03-22T04:39:21.677Z,33.00
2023-03-22T04:41:56.852Z,31.90
2023-03-22T04:44:23.890Z,31.20
2023-03-22T04:46:50.888Z,27.10
2023-03-22T04:49:18.006Z,25.30
2023-03-22T04:51:44.860Z,24.60
2023-03-22T04:54:23.654Z,25.20
2023-03-22T04:56:51.268Z,26.20
2023-03-22T04:59:20.486Z,25.40
2023-03-22T05:01:48.908Z,26.20
2023-03-22T05:04:19.664Z,25.30
2023-03-22T05:06:47.172Z,25.60
2023-03-22T05:09:23.336Z,26.10
2023-03-22T05:11:51.308Z,24.80
2023-03-22T05:14:28.361Z,24.60
2023-03-22T05:16:55.714Z,23.20
2023-03-22T05:19:24.699Z,22.20
2023-03-22T05:21:58.302Z,22.50
2023-03-22T05:24:33.815Z,20.80
2023-03-22T05:27:01.270Z,21.80
2023-03-22T05:29:28.856Z,25.60
2023-03-22T05:32:06.565Z,27.20
2023-03-22T05:34:36.077Z,27.30
2023-03-22T05:37:22.454Z,24.60
2023-03-22T05:39:53.117Z,22.90
2023-03-22T05:42:20.891Z,23.70
2023-03-22T05:44:47.848Z,23.40
2023-03-22T05:47:14.820Z,23.80
2023-03-22T05:49:53.720Z,23.90
2023-03-22T05:52:22.398Z,25.40
2023-03-22T05:57:41.480Z,25.20
2023-03-22T06:00:16.434Z,25.50
2023-03-22T06:03:03.541Z,23.60
2023-03-22T06:05:32.531Z,25.00
2023-03-22T06:07:59.962Z,25.60
2023-03-22T06:10:29.454Z,25.00
2023-03-22T06:12:56.509Z,26.90
2023-03-22T06:15:29.145Z,26.70
2023-03-22T06:20:27.504Z,24.80
2023-03-22T06:22:59.774Z,24.40
2023-03-22T06:25:27.168Z,23.50
2023-03-22T06:27:55.142Z,24.20
2023-03-22T06:30:22.605Z,23.80
2023-03-22T06:33:18.770Z,23.30
2023-03-22T06:38:20.404Z,23.90
2023-03-22T06:40:47.525Z,22.90
2023-03-22T06:43:14.405Z,21.80
2023-03-22T06:45:43.660Z,22.90
2023-03-22T06:48:11.658Z,22.50
2023-03-22T06:51:08.297Z,21.40
2023-03-22T06:53:36.719Z,21.40
2023-03-22T06:56:04.598Z,21.80
2023-03-22T06:58:41.798Z,21.50
2023-03-22T07:01:08.753Z,20.40
2023-03-22T07:03:36.384Z,20.60
2023-03-22T07:06:08.950Z,18.70
2023-03-22T07:08:38.641Z,19.00
2023-03-22T07:11:06.837Z,18.10
2023-03-22T07:13:33.969Z,17.90
2023-03-22T07:21:10.656Z,18.30
2023-03-22T07:23:38.758Z,18.60
2023-03-22T07:26:09.555Z,17.90
2023-03-22T07:28:41.627Z,17.50
2023-03-22T07:31:11.769Z,16.90
2023-03-22T07:34:00.380Z,17.40
2023-03-22T07:36:32.809Z,16.60
2023-03-22T07:38:59.873Z,16.10
2023-03-22T07:41:32.946Z,15.40
2023-03-22T07:47:30.592Z,14.60
2023-03-22T07:50:27.930Z,14.20
2023-03-22T07:52:56.353Z,13.90
2023-03-22T07:55:23.474Z,13.50
2023-03-22T07:57:51.484Z,15.20
2023-03-22T08:00:18.838Z,12.70
2023-03-22T08:02:52.386Z,13.30
2023-03-22T08:05:42.220Z,11.80
2023-03-22T08:08:13.740Z,12.20
2023-03-22T08:10:41.132Z,10.80
2023-03-22T08:13:08.177Z,10.10
2023-03-22T08:15:37.625Z,9.70
2023-03-22T08:20:34.780Z,6.20
2023-03-22T08:23:05.847Z,6.80
2023-03-22T08:25:53.134Z,5.60
2023-03-22T08:28:20.456Z,5.40
2023-03-22T08:30:49.226Z,5.50
2023-03-22T08:33:16.549Z,6.00
2023-03-22T08:35:45.503Z,5.90
2023-03-22T08:38:12.651Z,5.70
2023-03-22T08:40:47.981Z,6.20
2023-03-22T08:43:20.752Z,5.60
2023-03-22T08:45:47.818Z,6.40
2023-03-22T08:48:16.490Z,6.30
2023-03-22T08:50:57.741Z,6.30
2023-03-22T08:53:30.945Z,6.20
2023-03-22T08:56:15.010Z,6.40
2023-03-22T08:58:50.089Z,5.80
2023-03-22T09:01:37.461Z,6.60
2023-03-22T09:04:07.093Z,6.50
2023-03-22T09:06:35.815Z,6.30
2023-03-22T09:09:03.627Z,7.30
2023-03-22T09:11:31.364Z,6.40
2023-03-22T09:13:58.220Z,6.00
2023-03-22T09:16:25.123Z,7.20
2023-03-22T09:18:52.056Z,7.00
2023-03-22T09:21:22.192Z,6.50
2023-03-22T09:23:56.862Z,6.50
2023-03-22T09:26:30.054Z,6.60
2023-03-22T09:28:57.063Z,6.40
2023-03-22T09:31:24.052Z,6.80
2023-03-22T09:34:01.017Z,7.00
2023-03-22T09:36:27.980Z,7.50
2023-03-22T09:38:54.887Z,7.40
2023-03-22T09:41:27.824Z,6.90
2023-03-22T09:43:59.852Z,7.90
2023-03-22T09:46:34.529Z,7.90
2023-03-22T09:49:06.281Z,7.00
2023-03-22T09:51:42.630Z,7.80
2023-03-22T09:54:21.668Z,7.00
2023-03-22T09:57:15.883Z,6.50
2023-03-22T10:00:11.865Z,7.60
2023-03-22T10:03:00.836Z,8.40
2023-03-22T10:05:52.940Z,8.40
2023-03-22T10:08:38.504Z,8.00
2023-03-22T10:11:20.637Z,7.30
2023-03-22T10:14:25.481Z,6.10
2023-03-22T10:16:56.642Z,6.20
2023-03-22T10:19:31.785Z,6.60
2023-03-22T10:22:02.396Z,7.60
2023-03-22T10:24:33.726Z,8.30
2023-03-22T10:27:01.603Z,7.70
2023-03-22T10:29:39.823Z,7.80
2023-03-22T10:32:21.107Z,7.20
2023-03-22T10:34:47.980Z,7.80
2023-03-22T10:37:22.602Z,7.90
2023-03-22T10:39:53.966Z,8.30
2023-03-22T10:42:28.153Z,7.40
2023-03-22T10:45:14.790Z,8.00
2023-03-22T10:47:42.642Z,8.10
2023-03-22T10:50:21.422Z,8.30
2023-03-22T10:52:58.041Z,9.10
2023-03-22T10:55:26.112Z,9.00
2023-03-22T10:58:16.060Z,8.70
2023-03-22T11:03:37.913Z,8.90
2023-03-22T11:06:23.524Z,9.30
2023-03-22T11:08:57.502Z,8.60
2023-03-22T11:11:24.421Z,9.50
2023-03-22T11:13:55.817Z,7.80
2023-03-22T11:16:23.644Z,9.00
2023-03-22T11:18:51.044Z,9.00
2023-03-22T11:21:19.912Z,18.70
2023-03-22T11:24:00.864Z,9.30
2023-03-22T11:26:31.808Z,8.70
2023-03-22T11:29:16.707Z,7.90
2023-03-22T11:32:00.568Z,8.70
2023-03-22T11:34:31.000Z,8.20
2023-03-22T11:37:01.626Z,8.40
2023-03-22T11:39:29.860Z,8.40
2023-03-22T11:42:04.159Z,8.70
2023-03-22T11:44:38.376Z,9.90
2023-03-22T11:47:08.504Z,10.30
2023-03-22T11:49:45.653Z,9.60
2023-03-22T11:52:18.472Z,8.70
2023-03-22T11:54:47.101Z,8.80
2023-03-22T11:57:18.713Z,8.50
2023-03-22T12:00:12.041Z,9.80
2023-03-22T12:02:46.701Z,8.60
2023-03-22T12:05:24.537Z,8.90
2023-03-22T12:08:03.835Z,8.90
2023-03-22T12:10:42.829Z,9.00
2023-03-22T12:13:41.956Z,7.00
2023-03-22T12:16:15.112Z,8.30
2023-03-22T12:18:51.511Z,7.30
2023-03-22T12:21:18.439Z,7.00
2023-03-22T12:23:45.964Z,8.80
2023-03-22T12:26:20.735Z,7.60
2023-03-22T12:28:59.735Z,7.80
2023-03-22T12:31:38.297Z,7.60
2023-03-22T12:34:14.662Z,17.10
2023-03-22T12:36:47.170Z,13.20
2023-03-22T12:39:35.065Z,9.00
2023-03-22T12:42:10.997Z,11.50
2023-03-22T12:44:43.282Z,10.00
2023-03-22T12:47:20.830Z,8.80
2023-03-22T12:50:14.245Z,8.30
2023-03-22T12:52:46.115Z,9.10
2023-03-22T12:55:30.973Z,9.20
2023-03-22T12:57:59.263Z,10.10
2023-03-22T13:00:33.420Z,9.40
2023-03-22T13:03:18.953Z,9.20
2023-03-22T13:05:48.645Z,13.80
2023-03-22T13:08:21.862Z,11.80
2023-03-22T13:10:59.166Z,10.70
2023-03-22T13:13:28.002Z,8.90
2023-03-22T13:15:57.953Z,12.70
2023-03-22T13:21:16.709Z,10.30
2023-03-22T13:24:21.157Z,9.60
2023-03-22T13:26:55.608Z,10.10
2023-03-22T13:29:25.866Z,9.90
2023-03-22T13:31:59.225Z,10.30
2023-03-22T13:34:50.734Z,10.10
2023-03-22T13:37:31.855Z,10.00
2023-03-22T13:40:02.311Z,10.40
2023-03-22T13:42:38.295Z,12.60
2023-03-22T13:45:09.537Z,13.00
2023-03-22T13:47:49.776Z,11.40
2023-03-22T13:50:29.763Z,18.10
2023-03-22T13:53:05.096Z,19.50
2023-03-22T13:55:58.871Z,20.70
2023-03-22T13:58:46.814Z,16.60
2023-03-22T14:01:36.599Z,11.60
2023-03-22T14:04:12.563Z,11.30
2023-03-22T14:06:57.578Z,10.60
2023-03-22T14:09:31.467Z,10.20
2023-03-22T14:12:28.671Z,10.60
2023-03-22T14:15:01.047Z,10.60
2023-03-22T14:17:50.715Z,10.50
2023-03-22T14:20:21.170Z,11.30
